createdAt,value
2023-04-24T00:02:19.894Z,87.00
2023-04-24T00:04:47.508Z,87.19
2023-04-24T00:07:15.559Z,87.09
2023-04-24T00:09:43.148Z,88.04
2023-04-24T00:12:11.199Z,87.84
2023-04-24T00:14:39.938Z,88.38
2023-04-24T00:17:07.281Z,88.16
2023-04-24T00:19:34.515Z,88.37
2023-04-24T00:22:01.479Z,88.32
2023-04-24T00:24:28.900Z,87.77
2023-04-24T00:26:55.943Z,88.07
2023-04-24T00:29:23.243Z,87.78
2023-04-24T00:31:50.767Z,87.82
2023-04-24T00:34:17.758Z,87.74
2023-04-24T00:36:45.413Z,87.33
2023-04-24T00:39:12.499Z,86.72
2023-04-24T00:41:39.894Z,87.20
2023-04-24T00:44:08.500Z,87.38
2023-04-24T00:46:37.345Z,86.73
2023-04-24T00:49:06.099Z,87.07
2023-04-24T00:51:34.079Z,86.93
2023-04-24T00:54:02.444Z,88.23
2023-04-24T00:56:30.282Z,91.62
2023-04-24T00:58:57.622Z,91.50
2023-04-24T01:01:25.422Z,89.96
2023-04-24T01:03:54.821Z,90.55
2023-04-24T01:06:23.507Z,89.46
2023-04-24T01:08:50.891Z,89.54
2023-04-24T01:11:18.917Z,89.18
2023-04-24T01:13:46.992Z,89.52
2023-04-24T01:16:15.936Z,89.22
2023-04-24T01:18:43.921Z,88.95
2023-04-24T01:21:15.315Z,91.47
2023-04-24T01:23:42.539Z,93.99
2023-04-24T01:26:09.787Z,94.35
2023-04-24T01:28:37.141Z,94.30
2023-04-24T01:31:06.641Z,94.52
2023-04-24T01:33:33.803Z,95.23
2023-04-24T01:36:02.155Z,94.99
2023-04-24T01:38:29.518Z,93.95
2023-04-24T01:40:56.883Z,93.73
2023-04-24T01:43:25.944Z,93.60
2023-04-24T01:45:52.959Z,93.28
2023-04-24T01:48:19.974Z,92.30
2023-04-24T01:50:47.138Z,91.94
2023-04-24T01:53:16.366Z,91.13
2023-04-24T01:55:44.144Z,90.64
2023-04-24T01:58:13.793Z,89.60
2023-04-24T02:00:41.629Z,89.40
2023-04-24T02:03:09.878Z,89.48
2023-04-24T02:05:36.964Z,89.00
2023-04-24T02:08:07.266Z,89.05
2023-04-24T02:10:38.203Z,88.70
2023-04-24T02:13:06.126Z,88.02
2023-04-24T02:15:33.660Z,88.04
2023-04-24T02:18:00.999Z,87.33
2023-04-24T02:20:28.721Z,86.98
2023-04-24T02:22:56.239Z,86.55
2023-04-24T02:25:23.429Z,85.92
2023-04-24T02:27:51.311Z,85.69
2023-04-24T02:30:19.436Z,85.30
2023-04-24T02:32:47.254Z,85.39
2023-04-24T02:35:15.621Z,85.45
2023-04-24T02:37:43.622Z,86.38
2023-04-24T02:40:14.098Z,86.16
2023-04-24T02:42:42.021Z,85.73
2023-04-24T02:45:10.279Z,85.69
2023-04-24T02:47:38.621Z,85.65
2023-04-24T02:50:07.006Z,86.04
2023-04-24T02:52:35.899Z,85.53
2023-04-24T02:55:04.335Z,85.37
2023-04-24T02:57:33.282Z,84.95
2023-04-24T03:00:00.840Z,85.00
2023-04-24T03:02:31.108Z,84.62
2023-04-24T03:04:58.361Z,84.45
2023-04-24T03:07:26.462Z,84.05
2023-04-24T03:09:53.864Z,84.35
2023-04-24T03:12:21.614Z,84.72
2023-04-24T03:14:49.540Z,86.00
2023-04-24T03:17:16.862Z,85.65
2023-04-24T03:19:45.044Z,84.49
2023-04-24T03:22:14.211Z,83.07
2023-04-24T03:24:41.996Z,81.65
2023-04-24T03:27:10.299Z,80.02
2023-04-24T03:30:04.295Z,78.39
2023-04-24T03:32:43.452Z,75.95
2023-04-24T03:35:14.034Z,75.81
2023-04-24T03:37:41.697Z,75.62
2023-04-24T03:40:31.580Z,75.55
2023-04-24T03:42:59.855Z,75.56
2023-04-24T03:45:27.539Z,75.97
2023-04-24T03:47:55.381Z,75.90
2023-04-24T03:50:22.902Z,74.47
2023-04-24T03:52:51.224Z,73.38
2023-04-24T03:55:29.967Z,72.88
2023-04-24T03:57:57.245Z,72.30
2023-04-24T04:00:24.235Z,71.82
2023-04-24T04:03:03.826Z,73.03
2023-04-24T04:05:31.553Z,71.88
2023-04-24T04:07:59.321Z,70.38
2023-04-24T04:10:29.633Z,68.93
2023-04-24T04:12:56.922Z,69.47
2023-04-24T04:15:23.829Z,67.41
2023-04-24T04:17:52.168Z,63.98
2023-04-24T04:20:20.090Z,60.09
2023-04-24T04:22:47.644Z,57.80
2023-04-24T04:25:20.947Z,55.28
2023-04-24T04:27:52.462Z,53.02
2023-04-24T04:30:20.123Z,48.70
2023-04-24T04:32:53.349Z,46.51
2023-04-24T04:35:23.153Z,45.15
2023-04-24T04:37:52.712Z,43.10
2023-04-24T04:40:34.212Z,42.29
2023-04-24T04:43:05.590Z,41.91
2023-04-24T04:45:41.404Z,40.65
2023-04-24T04:48:44.182Z,40.80
2023-04-24T04:51:11.465Z,41.43
2023-04-24T04:53:38.817Z,42.60
2023-04-24T04:56:06.557Z,44.00
2023-04-24T04:58:51.863Z,43.25
2023-04-24T05:01:20.231Z,43.00
2023-04-24T05:03:49.095Z,43.42
2023-04-24T05:06:18.451Z,42.80
2023-04-24T05:08:46.976Z,41.08
2023-04-24T05:11:29.534Z,40.52
2023-04-24T05:13:57.683Z,40.73
2023-04-24T05:16:33.830Z,42.08
2023-04-24T05:19:02.118Z,43.72
2023-04-24T05:21:34.715Z,43.33
2023-04-24T05:24:02.253Z,42.69
2023-04-24T05:26:44.889Z,39.92
2023-04-24T05:29:14.252Z,37.99
2023-04-24T05:31:42.918Z,36.56
2023-04-24T05:34:11.244Z,36.87
2023-04-24T05:36:42.219Z,37.54
2023-04-24T05:39:09.814Z,37.90
2023-04-24T05:41:37.199Z,37.26
2023-04-24T05:44:04.624Z,35.87
2023-04-24T05:46:32.748Z,35.53
2023-04-24T05:49:02.114Z,35.58
2023-04-24T05:51:30.116Z,34.30
2023-04-24T05:53:57.100Z,32.20
2023-04-24T05:56:25.117Z,31.71
2023-04-24T05:58:52.630Z,28.79
2023-04-24T06:01:21.060Z,26.73
2023-04-24T06:03:55.449Z,26.27
2023-04-24T06:06:23.583Z,26.36
2023-04-24T06:08:51.412Z,26.23
2023-04-24T06:11:18.480Z,27.20
2023-04-24T06:13:46.128Z,28.00
2023-04-24T06:16:44.937Z,27.62
2023-04-24T06:19:27.175Z,26.93
2023-04-24T06:21:55.959Z,26.68
2023-04-24T06:24:23.593Z,26.37
2023-04-24T06:26:52.846Z,25.84
2023-04-24T06:29:20.239Z,24.72
2023-04-24T06:31:47.700Z,24.38
2023-04-24T06:34:15.036Z,23.99
2023-04-24T06:36:43.207Z,22.68
2023-04-24T06:39:11.213Z,21.91
2023-04-24T06:41:38.963Z,21.41
2023-04-24T06:44:06.570Z,22.35
2023-04-24T06:46:34.108Z,20.52
2023-04-24T06:49:01.786Z,21.07
2023-04-24T06:51:29.510Z,20.60
2023-04-24T06:54:00.165Z,21.41
2023-04-24T06:56:28.203Z,21.00
2023-04-24T06:58:55.838Z,20.19
2023-04-24T07:01:24.062Z,19.37
2023-04-24T07:03:51.963Z,19.91
2023-04-24T07:06:22.404Z,20.59
2023-04-24T07:08:50.025Z,20.38
2023-04-24T07:11:17.491Z,19.08
2023-04-24T07:13:45.562Z,18.26
2023-04-24T07:16:13.252Z,18.25
2023-04-24T07:18:41.018Z,18.22
2023-04-24T07:21:09.304Z,18.32
2023-04-24T07:23:36.569Z,17.80
2023-04-24T07:26:06.496Z,18.48
2023-04-24T07:28:33.966Z,18.79
2023-04-24T07:31:01.619Z,17.91
2023-04-24T07:33:48.300Z,18.40
2023-04-24T07:36:20.226Z,18.32
2023-04-24T07:38:47.536Z,18.22
2023-04-24T07:41:16.841Z,17.93
2023-04-24T07:43:44.560Z,17.08
2023-04-24T07:46:12.365Z,16.74
2023-04-24T07:48:39.837Z,14.69
2023-04-24T07:51:07.174Z,15.75
2023-04-24T07:53:34.284Z,17.06
2023-04-24T07:56:01.221Z,17.22
2023-04-24T07:58:28.933Z,17.53
2023-04-24T08:00:56.074Z,17.83
2023-04-24T08:03:23.582Z,17.97
2023-04-24T08:05:52.298Z,18.22
2023-04-24T08:08:23.257Z,18.34
2023-04-24T08:10:50.655Z,17.09
2023-04-24T08:13:18.032Z,17.31
2023-04-24T08:15:44.853Z,17.83
2023-04-24T08:18:13.615Z,16.22
2023-04-24T08:20:40.910Z,15.95
2023-04-24T08:23:08.117Z,16.09
2023-04-24T08:25:36.538Z,15.41
2023-04-24T08:28:05.365Z,15.23
2023-04-24T08:30:33.137Z,16.94
2023-04-24T08:33:00.472Z,17.77
2023-04-24T08:35:28.078Z,18.38
2023-04-24T08:37:55.020Z,19.46
2023-04-24T08:40:32.460Z,20.91
2023-04-24T08:43:01.078Z,21.53
2023-04-24T08:45:31.947Z,22.36
2023-04-24T08:47:59.965Z,22.82
2023-04-24T08:50:28.939Z,24.51
2023-04-24T08:52:57.116Z,25.27
2023-04-24T08:55:26.144Z,26.90
2023-04-24T08:57:54.972Z,26.57
2023-04-24T09:00:23.114Z,28.39
2023-04-24T09:02:52.090Z,29.19
2023-04-24T09:05:20.185Z,28.21
2023-04-24T09:07:53.918Z,29.85
2023-04-24T09:10:22.289Z,30.41
2023-04-24T09:12:53.868Z,30.12
2023-04-24T09:15:23.827Z,28.52
2023-04-24T09:17:51.387Z,28.62
2023-04-24T09:20:18.686Z,29.04
2023-04-24T09:22:46.620Z,30.49
2023-04-24T09:25:14.246Z,29.43
2023-04-24T09:27:46.530Z,29.52
2023-04-24T09:30:14.768Z,30.37
2023-04-24T09:32:43.209Z,29.98
2023-04-24T09:35:10.847Z,29.65
2023-04-24T09:37:40.575Z,29.61
2023-04-24T09:40:22.013Z,30.22
2023-04-24T09:42:55.115Z,27.91
2023-04-24T09:45:22.322Z,28.13
2023-04-24T09:47:55.085Z,27.60
2023-04-24T09:50:22.867Z,28.18
2023-04-24T09:53:03.060Z,26.98
2023-04-24T09:55:30.904Z,26.98
2023-04-24T09:58:01.552Z,26.51
2023-04-24T10:00:34.149Z,26.09
2023-04-24T10:03:03.588Z,25.79
2023-04-24T10:05:39.792Z,22.66
2023-04-24T10:08:09.556Z,22.40
2023-04-24T10:10:42.619Z,23.70
2023-04-24T10:13:14.227Z,22.92
2023-04-24T10:15:42.398Z,23.01
2023-04-24T10:18:10.299Z,22.29
2023-04-24T10:20:39.443Z,22.18
2023-04-24T10:23:07.280Z,20.50
2023-04-24T10:25:38.070Z,20.61
2023-04-24T10:28:08.381Z,19.67
2023-04-24T10:30:39.799Z,20.09
2023-04-24T10:33:10.765Z,21.24
2023-04-24T10:35:45.705Z,21.21
2023-04-24T10:38:15.536Z,22.12
2023-04-24T10:40:44.623Z,22.76
2023-04-24T10:43:12.610Z,22.64
2023-04-24T10:45:40.052Z,23.45
2023-04-24T10:48:12.538Z,23.21
2023-04-24T10:50:49.462Z,24.25
2023-04-24T10:53:22.070Z,25.85
2023-04-24T10:55:51.441Z,23.02
2023-04-24T10:58:23.795Z,22.93
2023-04-24T11:01:01.576Z,22.47
2023-04-24T11:03:34.354Z,21.58
2023-04-24T11:06:09.953Z,21.34
2023-04-24T11:08:45.196Z,18.25
2023-04-24T11:11:18.302Z,16.37
2023-04-24T11:13:58.015Z,17.96
2023-04-24T11:16:31.078Z,18.09
2023-04-24T11:19:09.578Z,18.60
2023-04-24T11:21:44.239Z,19.98
2023-04-24T11:24:32.060Z,19.11
2023-04-24T11:27:07.861Z,22.28
2023-04-24T11:29:57.400Z,24.01
2023-04-24T11:32:34.839Z,25.03
2023-04-24T11:35:25.966Z,27.13
2023-04-24T11:40:28.102Z,26.89
2023-04-24T11:43:00.768Z,26.09
2023-04-24T11:45:31.003Z,26.35
2023-04-24T11:47:58.522Z,26.08
2023-04-24T11:50:29.106Z,26.44
2023-04-24T11:52:57.205Z,26.75
2023-04-24T11:55:29.829Z,26.02
2023-04-24T11:57:59.753Z,26.21
2023-04-24T12:00:28.825Z,25.68
2023-04-24T12:03:13.478Z,26.27
2023-04-24T12:05:41.806Z,27.73
2023-04-24T12:08:09.609Z,27.66
2023-04-24T12:10:37.044Z,27.01
2023-04-24T12:13:04.559Z,27.52
2023-04-24T12:15:32.255Z,28.15
2023-04-24T12:17:59.999Z,28.15
2023-04-24T12:20:32.897Z,28.49
2023-04-24T12:23:03.619Z,29.15
2023-04-24T12:25:32.714Z,28.05
2023-04-24T12:28:06.316Z,29.37
2023-04-24T12:30:36.684Z,29.39
2023-04-24T12:33:04.857Z,28.11
2023-04-24T12:35:35.080Z,28.94
2023-04-24T12:38:15.924Z,28.07
2023-04-24T12:40:44.067Z,27.37
2023-04-24T12:43:16.603Z,28.31
2023-04-24T12:45:44.806Z,26.14
2023-04-24T12:48:12.636Z,26.04
2023-04-24T12:50:40.307Z,25.72
2023-04-24T12:53:09.240Z,24.09
2023-04-24T12:55:37.153Z,21.87
2023-04-24T12:58:04.567Z,23.27
2023-04-24T13:00:32.545Z,23.17
2023-04-24T13:05:48.743Z,26.22
2023-04-24T13:08:16.417Z,25.85
2023-04-24T13:10:43.834Z,26.76
2023-04-24T13:13:11.219Z,26.01
2023-04-24T13:15:38.179Z,26.07
2023-04-24T13:18:06.249Z,27.11
2023-04-24T13:20:33.792Z,28.99
2023-04-24T13:23:01.330Z,29.27
2023-04-24T13:25:29.462Z,28.26
2023-04-24T13:27:56.726Z,28.36
2023-04-24T13:30:24.387Z,29.44
2023-04-24T13:32:51.819Z,29.35
2023-04-24T13:35:19.397Z,30.39
2023-04-24T13:37:46.509Z,28.90
2023-04-24T13:40:13.785Z,29.53
2023-04-24T13:42:41.249Z,30.40
2023-04-24T13:45:17.816Z,32.08
2023-04-24T13:47:52.597Z,33.30
2023-04-24T13:50:21.846Z,35.53
2023-04-24T13:52:48.789Z,34.75
2023-04-24T13:55:15.863Z,34.85
2023-04-24T13:57:43.563Z,34.94
2023-04-24T14:00:12.463Z,34.71
2023-04-24T14:02:40.397Z,35.78
2023-04-24T14:05:07.907Z,36.55
2023-04-24T14:07:34.977Z,37.23
2023-04-24T14:10:02.333Z,37.42
2023-04-24T14:12:30.277Z,37.68
2023-04-24T14:14:58.591Z,37.57
2023-04-24T14:17:26.127Z,38.08
2023-04-24T14:19:57.041Z,35.15
2023-04-24T14:22:24.601Z,36.60
2023-04-24T14:24:54.271Z,35.05
2023-04-24T14:27:22.548Z,33.79
2023-04-24T14:29:50.091Z,34.66
2023-04-24T14:32:17.352Z,32.58
2023-04-24T14:34:44.496Z,31.41
2023-04-24T14:37:12.518Z,30.47
2023-04-24T14:39:39.612Z,30.53
2023-04-24T14:42:07.622Z,30.52
2023-04-24T14:44:35.133Z,30.36
2023-04-24T14:47:02.636Z,29.33
2023-04-24T14:49:31.384Z,29.92
2023-04-24T14:51:58.617Z,30.06
2023-04-24T14:54:27.192Z,31.54
2023-04-24T14:56:56.200Z,30.48
2023-04-24T14:59:23.630Z,29.52
2023-04-24T15:02:01.876Z,29.32
2023-04-24T15:04:36.765Z,30.26
2023-04-24T15:07:04.041Z,29.90
2023-04-24T15:09:33.790Z,29.42
2023-04-24T15:12:03.524Z,29.58
2023-04-24T15:14:34.312Z,29.39
2023-04-24T15:17:03.234Z,31.76
2023-04-24T15:19:33.430Z,30.57
2023-04-24T15:22:01.238Z,30.60
2023-04-24T15:24:29.570Z,30.03
2023-04-24T15:27:00.610Z,29.63
2023-04-24T15:29:28.675Z,30.73
2023-04-24T15:31:56.592Z,31.00
2023-04-24T15:34:23.331Z,31.41
2023-04-24T15:36:50.336Z,31.77
2023-04-24T15:39:17.842Z,32.12
2023-04-24T15:41:45.253Z,32.63
2023-04-24T15:44:12.501Z,32.91
2023-04-24T15:46:39.666Z,33.55
2023-04-24T15:49:07.008Z,34.15
2023-04-24T15:51:34.506Z,34.91
2023-04-24T15:54:02.052Z,35.62
2023-04-24T15:56:31.426Z,37.00
2023-04-24T15:58:59.476Z,36.81
2023-04-24T16:01:27.259Z,37.38
2023-04-24T16:03:55.067Z,37.23
2023-04-24T16:06:22.398Z,37.67
2023-04-24T16:08:49.505Z,38.31
2023-04-24T16:11:17.166Z,38.32
2023-04-24T16:13:44.243Z,39.61
2023-04-24T16:16:12.447Z,39.33
2023-04-24T16:18:39.893Z,39.83
2023-04-24T16:21:09.953Z,40.30
2023-04-24T16:23:37.581Z,40.29
2023-04-24T16:26:06.514Z,40.76
2023-04-24T16:28:34.023Z,40.79
2023-04-24T16:31:01.917Z,41.87
2023-04-24T16:33:30.153Z,41.79
2023-04-24T16:35:58.248Z,42.38
2023-04-24T16:38:26.786Z,42.90
2023-04-24T16:40:55.150Z,43.30
2023-04-24T16:43:22.563Z,43.42
2023-04-24T16:45:51.127Z,44.17
2023-04-24T16:48:21.008Z,44.68
2023-04-24T16:50:50.414Z,44.61
2023-04-24T16:53:18.855Z,45.11
2023-04-24T16:55:46.657Z,45.34
2023-04-24T16:58:14.874Z,45.69
2023-04-24T17:00:42.554Z,46.01
2023-04-24T17:03:12.440Z,46.88
2023-04-24T17:05:41.736Z,47.92
2023-04-24T17:08:08.852Z,48.12
2023-04-24T17:10:36.838Z,48.44
2023-04-24T17:13:06.023Z,49.17
2023-04-24T17:15:36.636Z,49.55
2023-04-24T17:18:06.307Z,50.80
2023-04-24T17:20:35.069Z,51.19
2023-04-24T17:23:02.871Z,50.86
2023-04-24T17:25:30.363Z,51.59
2023-04-24T17:27:58.767Z,51.97
2023-04-24T17:30:26.685Z,52.70
2023-04-24T17:32:53.569Z,52.60
2023-04-24T17:35:22.801Z,53.08
2023-04-24T17:37:50.184Z,53.50
2023-04-24T17:40:17.708Z,54.61
2023-04-24T17:42:47.390Z,54.19
2023-04-24T17:45:14.833Z,54.40
2023-04-24T17:47:42.727Z,54.59
2023-04-24T17:50:10.454Z,55.03
2023-04-24T17:52:38.358Z,54.88
2023-04-24T17:55:06.319Z,55.79
2023-04-24T17:57:33.672Z,55.81
2023-04-24T18:00:00.669Z,56.10
2023-04-24T18:02:27.895Z,56.39
2023-04-24T18:04:55.853Z,56.21
2023-04-24T18:07:23.405Z,57.58
2023-04-24T18:09:50.624Z,57.16
2023-04-24T18:12:18.228Z,57.75
2023-04-24T18:14:45.095Z,57.56
2023-04-24T18:17:12.512Z,57.58
2023-04-24T18:19:39.561Z,57.79
2023-04-24T18:22:08.556Z,58.10
2023-04-24T18:24:36.282Z,57.95
2023-04-24T18:27:04.223Z,59.58
2023-04-24T18:29:31.786Z,59.07
2023-04-24T18:31:59.054Z,60.04
2023-04-24T18:34:26.596Z,59.91
2023-04-24T18:36:54.696Z,61.37
2023-04-24T18:39:23.087Z,60.37
2023-04-24T18:41:50.746Z,61.09
2023-04-24T18:44:18.822Z,60.90
2023-04-24T18:46:45.870Z,61.82
2023-04-24T18:49:13.289Z,61.70
2023-04-24T18:51:53.182Z,62.36
2023-04-24T18:54:21.637Z,64.70
2023-04-24T18:56:48.902Z,63.84
2023-04-24T18:59:17.341Z,63.62
2023-04-24T19:01:44.747Z,63.92
2023-04-24T19:04:12.780Z,64.63
2023-04-24T19:06:41.250Z,64.68
2023-04-24T19:09:08.468Z,65.18
2023-04-24T19:11:37.049Z,64.72
2023-04-24T19:14:04.645Z,66.94
2023-04-24T19:16:32.581Z,67.34
2023-04-24T19:18:59.920Z,67.22
2023-04-24T19:21:28.454Z,67.30
2023-04-24T19:23:57.094Z,67.50
2023-04-24T19:26:26.057Z,66.23
2023-04-24T19:28:57.871Z,66.77
2023-04-24T19:31:25.663Z,66.74
2023-04-24T19:33:53.067Z,66.58
2023-04-24T19:36:20.449Z,66.46
2023-04-24T19:38:48.010Z,65.82
2023-04-24T19:41:15.308Z,66.28
2023-04-24T19:43:42.344Z,67.00
2023-04-24T19:46:10.005Z,65.99
2023-04-24T19:48:37.108Z,65.90
2023-04-24T19:51:05.019Z,65.95
2023-04-24T19:53:33.497Z,65.99
2023-04-24T19:56:00.906Z,65.90
2023-04-24T19:58:30.708Z,65.26
2023-04-24T20:00:58.532Z,65.14
2023-04-24T20:03:33.532Z,64.29
2023-04-24T20:06:01.658Z,63.86
2023-04-24T20:08:28.651Z,64.10
2023-04-24T20:10:58.201Z,63.25
2023-04-24T20:13:28.190Z,62.62
2023-04-24T20:15:55.951Z,62.82
2023-04-24T20:18:23.287Z,63.14
2023-04-24T20:20:54.227Z,62.71
2023-04-24T20:23:21.478Z,63.84
2023-04-24T20:25:50.488Z,64.84
2023-04-24T20:28:18.634Z,64.86
2023-04-24T20:30:46.165Z,64.79
2023-04-24T20:33:13.424Z,65.04
2023-04-24T20:35:40.897Z,64.60
2023-04-24T20:38:11.010Z,66.34
2023-04-24T20:40:50.136Z,67.11
2023-04-24T20:43:29.137Z,67.71
2023-04-24T20:45:58.444Z,68.31
2023-04-24T20:48:26.979Z,68.42
2023-04-24T20:51:00.046Z,68.03
2023-04-24T20:53:27.397Z,67.53
2023-04-24T20:55:54.748Z,67.70
2023-04-24T20:58:23.169Z,68.13
2023-04-24T21:00:51.383Z,68.26
2023-04-24T21:03:18.707Z,68.60
2023-04-24T21:05:55.216Z,68.23
2023-04-24T21:08:22.531Z,68.85
2023-04-24T21:10:49.910Z,67.78
2023-04-24T21:13:17.202Z,67.72
2023-04-24T21:15:44.218Z,67.74
2023-04-24T21:18:11.260Z,68.98
2023-04-24T21:20:38.356Z,68.46
2023-04-24T21:23:05.442Z,68.91
2023-04-24T21:25:33.004Z,69.10
2023-04-24T21:28:00.933Z,69.65
2023-04-24T21:30:28.175Z,69.25
2023-04-24T21:32:58.415Z,69.08
2023-04-24T21:35:28.408Z,69.49
2023-04-24T21:37:55.794Z,69.70
2023-04-24T21:40:23.139Z,68.68
2023-04-24T21:42:52.144Z,69.28
2023-04-24T21:45:19.680Z,69.56
2023-04-24T21:47:46.965Z,69.89
2023-04-24T21:50:14.509Z,69.58
2023-04-24T21:52:41.797Z,70.02
2023-04-24T21:55:09.308Z,70.97
2023-04-24T21:57:36.243Z,70.89
2023-04-24T22:00:03.657Z,70.89
2023-04-24T22:02:32.287Z,70.41
2023-04-24T22:05:03.513Z,71.26
2023-04-24T22:07:31.082Z,71.50
2023-04-24T22:09:58.513Z,71.07
2023-04-24T22:12:25.644Z,71.33
2023-04-24T22:14:52.843Z,70.60
2023-04-24T22:17:19.950Z,71.75
2023-04-24T22:19:47.462Z,71.17
2023-04-24T22:22:14.614Z,71.90
2023-04-24T22:24:42.104Z,70.84
2023-04-24T22:27:09.444Z,70.74
2023-04-24T22:29:36.776Z,69.89
2023-04-24T22:32:04.225Z,70.07
2023-04-24T22:34:31.672Z,70.39
2023-04-24T22:36:59.201Z,71.48
2023-04-24T22:39:26.451Z,72.41
2023-04-24T22:41:53.965Z,71.58
2023-04-24T22:44:21.831Z,71.00
2023-04-24T22:46:49.334Z,72.42
2023-04-24T22:49:16.603Z,71.66
2023-04-24T22:51:44.279Z,74.99
2023-04-24T22:54:11.635Z,75.59
2023-04-24T22:56:41.820Z,74.49
2023-04-24T22:59:09.256Z,75.04
2023-04-24T23:01:36.584Z,74.44
2023-04-24T23:04:03.707Z,74.58
2023-04-24T23:06:31.177Z,75.21
2023-04-24T23:08:59.937Z,74.03
2023-04-24T23:11:27.957Z,74.17
2023-04-24T23:13:55.208Z,74.13
2023-04-24T23:16:23.243Z,73.56
2023-04-24T23:18:50.171Z,74.12
2023-04-24T23:21:17.641Z,76.38
2023-04-24T23:23:44.988Z,75.12
2023-04-24T23:26:12.117Z,75.47
2023-04-24T23:28:40.742Z,75.17
2023-04-24T23:31:11.008Z,75.30
2023-04-24T23:33:38.540Z,75.68
2023-04-24T23:36:06.640Z,74.97
2023-04-24T23:38:43.232Z,75.50
2023-04-24T23:41:16.741Z,75.63
2023-04-24T23:43:43.950Z,76.24
2023-04-24T23:46:11.594Z,76.30
2023-04-24T23:48:38.779Z,77.46
2023-04-24T23:51:06.230Z,77.43
2023-04-24T23:53:33.445Z,78.40
2023-04-24T23:56:00.605Z,78.12
2023-04-24T23:58:27.633Z,78.00
